sensor_id;sensor_type;location;lat;lon;timestamp;P1;durP1;ratioP1;P2;durP2;ratioP2
3085;SDS011;52812;48.960;9.108;2023-02-15T00:01:08;39.63;;;13.47;;
3085;SDS011;52812;48.960;9.108;2023-02-15T00:03:35;38.13;;;13.40;;
3085;SDS011;52812;48.960;9.108;2023-02-15T00:06:01;38.93;;;14.23;;
3085;SDS011;52812;48.960;9.108;2023-02-15T00:08:27;32.83;;;12.10;;
3085;SDS011;52812;48.960;9.108;2023-02-15T00:10:53;48.27;;;13.30;;
3085;SDS011;52812;48.960;9.108;2023-02-15T00:13:32;28.17;;;11.77;;
3085;SDS011;52812;48.960;9.108;2023-02-15T00:16:05;32.30;;;12.50;;
3085;SDS011;52812;48.960;9.108;2023-02-15T00:18:32;35.23;;;12.60;;
3085;SDS011;52812;48.960;9.108;2023-02-15T00:20:58;32.93;;;12.37;;
3085;SDS011;52812;48.960;9.108;2023-02-15T00:23:28;25.87;;;12.17;;
3085;SDS011;52812;48.960;9.108;2023-02-15T00:26:02;29.60;;;12.83;;
3085;SDS011;52812;48.960;9.108;2023-02-15T00:28:35;34.37;;;12.20;;
3085;SDS011;52812;48.960;9.108;2023-02-15T00:31:05;34.53;;;12.43;;
3085;SDS011;52812;48.960;9.108;2023-02-15T00:33:32;36.80;;;12.40;;
3085;SDS011;52812;48.960;9.108;2023-02-15T00:35:58;35.07;;;12.47;;
3085;SDS011;52812;48.960;9.108;2023-02-15T00:38:25;35.23;;;11.73;;
3085;SDS011;52812;48.960;9.108;2023-02-15T00:40:55;31.80;;;12.00;;
3085;SDS011;52812;48.960;9.108;2023-02-15T00:43:23;30.40;;;11.00;;
3085;SDS011;52812;48.960;9.108;2023-02-15T00:45:49;36.27;;;12.07;;
3085;SDS011;52812;48.960;9.108;2023-02-15T00:48:15;25.30;;;11.20;;
3085;SDS011;52812;48.960;9.108;2023-02-15T00:50:41;24.53;;;10.93;;
3085;SDS011;52812;48.960;9.108;2023-02-15T00:53:06;37.33;;;11.40;;
3085;SDS011;52812;48.960;9.108;2023-02-15T00:55:32;31.13;;;10.47;;
3085;SDS011;52812;48.960;9.108;2023-02-15T00:57:58;26.30;;;10.57;;
3085;SDS011;52812;48.960;9.108;2023-02-15T01:00:23;21.50;;;10.57;;
3085;SDS011;52812;48.960;9.108;2023-02-15T01:02:49;22.03;;;10.37;;
3085;SDS011;52812;48.960;9.108;2023-02-15T01:05:15;24.10;;;10.87;;
3085;SDS011;52812;48.960;9.108;2023-02-15T01:07:40;23.10;;;10.40;;
3085;SDS011;52812;48.960;9.108;2023-02-15T01:10:06;24.57;;;10.60;;
3085;SDS011;52812;48.960;9.108;2023-02-15T01:12:32;34.77;;;10.90;;
3085;SDS011;52812;48.960;9.108;2023-02-15T01:14:59;27.00;;;11.00;;
3085;SDS011;52812;48.960;9.108;2023-02-15T01:17:24;23.57;;;10.70;;
3085;SDS011;52812;48.960;9.108;2023-02-15T01:19:51;24.07;;;9.37;;
3085;SDS011;52812;48.960;9.108;2023-02-15T01:22:17;17.07;;;8.80;;
3085;SDS011;52812;48.960;9.108;2023-02-15T01:24:43;19.83;;;9.10;;
3085;SDS011;52812;48.960;9.108;2023-02-15T01:27:09;22.17;;;9.20;;
3085;SDS011;52812;48.960;9.108;2023-02-15T01:29:34;20.50;;;8.30;;
3085;SDS011;52812;48.960;9.108;2023-02-15T01:32:00;26.53;;;9.17;;
3085;SDS011;52812;48.960;9.108;2023-02-15T01:34:25;18.60;;;8.93;;
3085;SDS011;52812;48.960;9.108;2023-02-15T01:36:51;21.53;;;9.23;;
3085;SDS011;52812;48.960;9.108;2023-02-15T01:39:17;25.53;;;10.20;;
3085;SDS011;52812;48.960;9.108;2023-02-15T01:41:42;27.27;;;8.97;;
3085;SDS011;52812;48.960;9.108;2023-02-15T01:47:12;19.77;;;9.73;;
3085;SDS011;52812;48.960;9.108;2023-02-15T01:49:44;17.73;;;8.63;;
3085;SDS011;52812;48.960;9.108;2023-02-15T01:52:12;24.60;;;9.37;;
3085;SDS011;52812;48.960;9.108;2023-02-15T01:54:41;30.00;;;9.00;;
3085;SDS011;52812;48.960;9.108;2023-02-15T01:57:12;25.70;;;9.80;;
3085;SDS011;52812;48.960;9.108;2023-02-15T01:59:42;33.23;;;9.40;;
3085;SDS011;52812;48.960;9.108;2023-02-15T02:02:11;31.67;;;10.37;;
3085;SDS011;52812;48.960;9.108;2023-02-15T02:04:46;27.00;;;9.23;;
3085;SDS011;52812;48.960;9.108;2023-02-15T02:07:14;28.00;;;8.87;;
3085;SDS011;52812;48.960;9.108;2023-02-15T02:09:44;29.10;;;9.40;;
3085;SDS011;52812;48.960;9.108;2023-02-15T02:12:10;25.70;;;9.23;;
3085;SDS011;52812;48.960;9.108;2023-02-15T02:14:36;38.63;;;9.40;;
3085;SDS011;52812;48.960;9.108;2023-02-15T02:19:45;27.07;;;9.53;;
3085;SDS011;52812;48.960;9.108;2023-02-15T02:41:17;46.23;;;9.57;;
3085;SDS011;52812;48.960;9.108;2023-02-15T02:46:50;31.10;;;8.80;;
3085;SDS011;52812;48.960;9.108;2023-02-15T02:49:34;58.97;;;9.00;;
3085;SDS011;52812;48.960;9.108;2023-02-15T02:52:02;31.63;;;9.03;;
3085;SDS011;52812;48.960;9.108;2023-02-15T02:54:31;27.10;;;9.00;;
3085;SDS011;52812;48.960;9.108;2023-02-15T02:57:01;43.77;;;9.00;;
3085;SDS011;52812;48.960;9.108;2023-02-15T02:59:32;37.67;;;8.83;;
3085;SDS011;52812;48.960;9.108;2023-02-15T03:02:07;23.90;;;9.27;;
3085;SDS011;52812;48.960;9.108;2023-02-15T03:04:39;31.17;;;8.63;;
3085;SDS011;52812;48.960;9.108;2023-02-15T03:07:11;29.70;;;9.30;;
3085;SDS011;52812;48.960;9.108;2023-02-15T03:09:41;39.57;;;9.73;;
3085;SDS011;52812;48.960;9.108;2023-02-15T03:14:40;25.27;;;8.80;;
3085;SDS011;52812;48.960;9.108;2023-02-15T03:17:09;30.07;;;9.00;;
3085;SDS011;52812;48.960;9.108;2023-02-15T03:19:37;32.87;;;8.23;;
3085;SDS011;52812;48.960;9.108;2023-02-15T03:22:05;31.63;;;8.60;;
3085;SDS011;52812;48.960;9.108;2023-02-15T03:24:37;59.70;;;8.70;;
3085;SDS011;52812;48.960;9.108;2023-02-15T03:27:40;27.47;;;7.90;;
3085;SDS011;52812;48.960;9.108;2023-02-15T03:30:12;38.33;;;8.47;;
3085;SDS011;52812;48.960;9.108;2023-02-15T03:32:39;35.20;;;9.40;;
3085;SDS011;52812;48.960;9.108;2023-02-15T03:35:08;31.40;;;8.07;;
3085;SDS011;52812;48.960;9.108;2023-02-15T03:37:41;17.90;;;8.60;;
3085;SDS011;52812;48.960;9.108;2023-02-15T03:43:21;20.30;;;8.43;;
3085;SDS011;52812;48.960;9.108;2023-02-15T03:45:49;21.40;;;8.87;;
3085;SDS011;52812;48.960;9.108;2023-02-15T03:48:21;19.30;;;9.40;;
3085;SDS011;52812;48.960;9.108;2023-02-15T03:50:51;19.40;;;8.90;;
3085;SDS011;52812;48.960;9.108;2023-02-15T03:53:41;20.63;;;8.70;;
3085;SDS011;52812;48.960;9.108;2023-02-15T03:56:08;19.17;;;8.63;;
3085;SDS011;52812;48.960;9.108;2023-02-15T03:58:33;19.27;;;9.90;;
3085;SDS011;52812;48.960;9.108;2023-02-15T04:04:30;16.33;;;7.47;;
3085;SDS011;52812;48.960;9.108;2023-02-15T04:07:01;18.63;;;8.70;;
3085;SDS011;52812;48.960;9.108;2023-02-15T04:09:29;31.50;;;8.57;;
3085;SDS011;52812;48.960;9.108;2023-02-15T04:12:13;30.20;;;8.47;;
3085;SDS011;52812;48.960;9.108;2023-02-15T04:14:38;21.20;;;8.80;;
3085;SDS011;52812;48.960;9.108;2023-02-15T04:17:22;16.33;;;8.03;;
3085;SDS011;52812;48.960;9.108;2023-02-15T04:19:48;30.47;;;8.57;;
3085;SDS011;52812;48.960;9.108;2023-02-15T04:22:32;22.00;;;9.30;;
3085;SDS011;52812;48.960;9.108;2023-02-15T04:25:16;27.97;;;9.80;;
3085;SDS011;52812;48.960;9.108;2023-02-15T04:27:47;25.43;;;9.60;;
3085;SDS011;52812;48.960;9.108;2023-02-15T04:30:15;22.23;;;9.70;;
3085;SDS011;52812;48.960;9.108;2023-02-15T04:32:43;18.20;;;8.80;;
3085;SDS011;52812;48.960;9.108;2023-02-15T04:35:09;26.53;;;9.80;;
3085;SDS011;52812;48.960;9.108;2023-02-15T04:37:36;21.30;;;8.63;;
3085;SDS011;52812;48.960;9.108;2023-02-15T04:40:03;26.83;;;10.37;;
3085;SDS011;52812;48.960;9.108;2023-02-15T04:42:30;22.43;;;8.80;;
3085;SDS011;52812;48.960;9.108;2023-02-15T04:44:55;22.90;;;10.10;;
3085;SDS011;52812;48.960;9.108;2023-02-15T04:47:21;17.20;;;9.30;;
3085;SDS011;52812;48.960;9.108;2023-02-15T04:49:47;17.37;;;8.50;;
3085;SDS011;52812;48.960;9.108;2023-02-15T04:52:13;22.67;;;9.10;;
3085;SDS011;52812;48.960;9.108;2023-02-15T04:54:39;31.87;;;9.20;;
3085;SDS011;52812;48.960;9.108;2023-02-15T04:57:04;27.97;;;10.10;;
3085;SDS011;52812;48.960;9.108;2023-02-15T04:59:31;19.90;;;9.60;;
3085;SDS011;52812;48.960;9.108;2023-02-15T05:01:57;23.97;;;10.53;;
3085;SDS011;52812;48.960;9.108;2023-02-15T05:04:22;28.00;;;10.30;;
3085;SDS011;52812;48.960;9.108;2023-02-15T05:06:48;25.80;;;8.97;;
3085;SDS011;52812;48.960;9.108;2023-02-15T05:09:14;22.40;;;10.07;;
3085;SDS011;52812;48.960;9.108;2023-02-15T05:11:40;23.50;;;10.27;;
3085;SDS011;52812;48.960;9.108;2023-02-15T05:14:06;26.20;;;10.10;;
3085;SDS011;52812;48.960;9.108;2023-02-15T05:16:31;29.67;;;10.53;;
3085;SDS011;52812;48.960;9.108;2023-02-15T05:18:57;21.20;;;9.80;;
3085;SDS011;52812;48.960;9.108;2023-02-15T05:21:23;23.13;;;10.17;;
3085;SDS011;52812;48.960;9.108;2023-02-15T05:23:48;24.10;;;9.10;;
3085;SDS011;52812;48.960;9.108;2023-02-15T05:26:18;28.30;;;10.50;;
3085;SDS011;52812;48.960;9.108;2023-02-15T05:29:05;21.83;;;10.27;;
3085;SDS011;52812;48.960;9.108;2023-02-15T05:31:31;28.53;;;10.57;;
3085;SDS011;52812;48.960;9.108;2023-02-15T05:33:58;23.90;;;10.10;;
3085;SDS011;52812;48.960;9.108;2023-02-15T05:36:24;21.73;;;9.80;;
3085;SDS011;52812;48.960;9.108;2023-02-15T05:38:49;33.47;;;10.70;;
3085;SDS011;52812;48.960;9.108;2023-02-15T05:41:15;24.23;;;9.60;;
3085;SDS011;52812;48.960;9.108;2023-02-15T05:43:41;17.10;;;9.40;;
3085;SDS011;52812;48.960;9.108;2023-02-15T05:46:07;23.80;;;9.60;;
3085;SDS011;52812;48.960;9.108;2023-02-15T05:48:33;24.60;;;10.30;;
3085;SDS011;52812;48.960;9.108;2023-02-15T05:50:59;24.40;;;9.97;;
3085;SDS011;52812;48.960;9.108;2023-02-15T05:53:34;26.77;;;10.43;;
3085;SDS011;52812;48.960;9.108;2023-02-15T05:56:01;22.70;;;9.67;;
3085;SDS011;52812;48.960;9.108;2023-02-15T05:58:31;21.77;;;10.00;;
3085;SDS011;52812;48.960;9.108;2023-02-15T06:00:58;25.00;;;11.33;;
3085;SDS011;52812;48.960;9.108;2023-02-15T06:03:24;23.20;;;10.20;;
3085;SDS011;52812;48.960;9.108;2023-02-15T06:05:51;30.73;;;10.57;;
3085;SDS011;52812;48.960;9.108;2023-02-15T06:08:17;22.57;;;10.20;;
3085;SDS011;52812;48.960;9.108;2023-02-15T06:10:44;21.70;;;9.80;;
3085;SDS011;52812;48.960;9.108;2023-02-15T06:13:10;24.50;;;10.70;;
3085;SDS011;52812;48.960;9.108;2023-02-15T06:15:36;22.23;;;9.67;;
3085;SDS011;52812;48.960;9.108;2023-02-15T06:18:02;23.37;;;10.57;;
3085;SDS011;52812;48.960;9.108;2023-02-15T06:20:28;22.43;;;10.60;;
3085;SDS011;52812;48.960;9.108;2023-02-15T06:22:53;20.53;;;10.20;;
3085;SDS011;52812;48.960;9.108;2023-02-15T06:25:19;75.90;;;12.50;;
3085;SDS011;52812;48.960;9.108;2023-02-15T06:27:45;20.10;;;10.17;;
3085;SDS011;52812;48.960;9.108;2023-02-15T06:30:10;21.17;;;10.30;;
3085;SDS011;52812;48.960;9.108;2023-02-15T06:32:37;23.97;;;10.60;;
3085;SDS011;52812;48.960;9.108;2023-02-15T06:35:02;26.73;;;11.60;;
3085;SDS011;52812;48.960;9.108;2023-02-15T06:37:28;25.70;;;10.60;;
3085;SDS011;52812;48.960;9.108;2023-02-15T06:39:54;20.90;;;11.10;;
3085;SDS011;52812;48.960;9.108;2023-02-15T06:42:20;24.30;;;10.30;;
3085;SDS011;52812;48.960;9.108;2023-02-15T06:44:46;24.23;;;11.80;;
3085;SDS011;52812;48.960;9.108;2023-02-15T06:47:12;22.83;;;11.17;;
3085;SDS011;52812;48.960;9.108;2023-02-15T06:49:37;23.37;;;11.23;;
3085;SDS011;52812;48.960;9.108;2023-02-15T06:52:03;27.10;;;12.03;;
3085;SDS011;52812;48.960;9.108;2023-02-15T06:54:29;20.47;;;10.73;;
3085;SDS011;52812;48.960;9.108;2023-02-15T06:56:55;24.23;;;11.10;;
3085;SDS011;52812;48.960;9.108;2023-02-15T06:59:20;24.27;;;11.30;;
3085;SDS011;52812;48.960;9.108;2023-02-15T07:01:46;21.40;;;10.60;;
3085;SDS011;52812;48.960;9.108;2023-02-15T07:04:12;26.27;;;10.90;;
3085;SDS011;52812;48.960;9.108;2023-02-15T07:06:37;25.97;;;10.93;;
3085;SDS011;52812;48.960;9.108;2023-02-15T07:09:03;26.40;;;11.70;;
3085;SDS011;52812;48.960;9.108;2023-02-15T07:11:29;22.07;;;10.00;;
3085;SDS011;52812;48.960;9.108;2023-02-15T07:14:13;24.20;;;10.90;;
3085;SDS011;52812;48.960;9.108;2023-02-15T07:16:39;26.30;;;12.43;;
3085;SDS011;52812;48.960;9.108;2023-02-15T07:19:04;30.73;;;10.57;;
3085;SDS011;52812;48.960;9.108;2023-02-15T07:21:30;31.40;;;12.17;;
3085;SDS011;52812;48.960;9.108;2023-02-15T07:23:56;23.33;;;11.80;;
3085;SDS011;52812;48.960;9.108;2023-02-15T07:26:22;29.00;;;11.90;;
3085;SDS011;52812;48.960;9.108;2023-02-15T07:28:48;25.23;;;12.10;;
3085;SDS011;52812;48.960;9.108;2023-02-15T07:31:14;30.23;;;11.40;;
3085;SDS011;52812;48.960;9.108;2023-02-15T07:33:40;21.57;;;11.30;;
3085;SDS011;52812;48.960;9.108;2023-02-15T07:36:06;23.33;;;11.60;;
3085;SDS011;52812;48.960;9.108;2023-02-15T07:38:33;22.70;;;11.50;;
3085;SDS011;52812;48.960;9.108;2023-02-15T07:41:01;23.30;;;11.33;;
3085;SDS011;52812;48.960;9.108;2023-02-15T07:43:28;25.63;;;12.50;;
3085;SDS011;52812;48.960;9.108;2023-02-15T07:45:59;30.13;;;11.73;;
3085;SDS011;52812;48.960;9.108;2023-02-15T07:48:25;23.83;;;11.93;;
3085;SDS011;52812;48.960;9.108;2023-02-15T07:50:51;27.50;;;11.87;;
3085;SDS011;52812;48.960;9.108;2023-02-15T07:53:17;32.33;;;12.17;;
3085;SDS011;52812;48.960;9.108;2023-02-15T07:55:42;27.20;;;12.67;;
3085;SDS011;52812;48.960;9.108;2023-02-15T07:58:08;37.33;;;13.13;;
3085;SDS011;52812;48.960;9.108;2023-02-15T08:00:33;25.00;;;12.43;;
3085;SDS011;52812;48.960;9.108;2023-02-15T08:03:19;22.67;;;11.30;;
3085;SDS011;52812;48.960;9.108;2023-02-15T08:05:47;25.77;;;11.53;;
3085;SDS011;52812;48.960;9.108;2023-02-15T08:08:12;22.47;;;11.60;;
3085;SDS011;52812;48.960;9.108;2023-02-15T08:11:16;22.87;;;12.20;;
3085;SDS011;52812;48.960;9.108;2023-02-15T08:14:24;31.03;;;11.87;;
3085;SDS011;52812;48.960;9.108;2023-02-15T08:19:20;23.43;;;11.20;;
3085;SDS011;52812;48.960;9.108;2023-02-15T08:21:54;24.67;;;12.40;;
3085;SDS011;52812;48.960;9.108;2023-02-15T08:24:29;26.30;;;12.17;;
3085;SDS011;52812;48.960;9.108;2023-02-15T08:26:59;28.80;;;11.77;;
3085;SDS011;52812;48.960;9.108;2023-02-15T08:29:28;23.60;;;11.47;;
3085;SDS011;52812;48.960;9.108;2023-02-15T08:31:58;24.53;;;11.03;;
3085;SDS011;52812;48.960;9.108;2023-02-15T08:34:27;27.53;;;12.70;;
3085;SDS011;52812;48.960;9.108;2023-02-15T08:36:54;24.43;;;11.90;;
3085;SDS011;52812;48.960;9.108;2023-02-15T08:39:19;30.33;;;12.23;;
3085;SDS011;52812;48.960;9.108;2023-02-15T08:41:46;27.60;;;12.47;;
3085;SDS011;52812;48.960;9.108;2023-02-15T08:44:12;27.50;;;12.37;;
3085;SDS011;52812;48.960;9.108;2023-02-15T08:46:41;24.93;;;13.27;;
3085;SDS011;52812;48.960;9.108;2023-02-15T08:49:08;23.93;;;13.10;;
3085;SDS011;52812;48.960;9.108;2023-02-15T08:51:37;24.70;;;12.30;;
3085;SDS011;52812;48.960;9.108;2023-02-15T08:54:04;25.23;;;11.83;;
3085;SDS011;52812;48.960;9.108;2023-02-15T08:56:33;33.33;;;13.50;;
3085;SDS011;52812;48.960;9.108;2023-02-15T08:59:00;27.23;;;12.90;;
3085;SDS011;52812;48.960;9.108;2023-02-15T09:01:26;24.57;;;13.60;;
3085;SDS011;52812;48.960;9.108;2023-02-15T09:03:58;23.37;;;11.57;;
3085;SDS011;52812;48.960;9.108;2023-02-15T09:06:26;26.33;;;12.27;;
3085;SDS011;52812;48.960;9.108;2023-02-15T09:08:52;26.77;;;13.23;;
3085;SDS011;52812;48.960;9.108;2023-02-15T09:11:23;26.27;;;12.87;;
3085;SDS011;52812;48.960;9.108;2023-02-15T09:13:52;26.80;;;12.73;;
3085;SDS011;52812;48.960;9.108;2023-02-15T09:16:19;24.10;;;12.10;;
3085;SDS011;52812;48.960;9.108;2023-02-15T09:18:46;25.97;;;13.53;;
3085;SDS011;52812;48.960;9.108;2023-02-15T09:21:16;32.37;;;14.50;;
3085;SDS011;52812;48.960;9.108;2023-02-15T09:23:47;25.53;;;12.30;;
3085;SDS011;52812;48.960;9.108;2023-02-15T09:26:15;30.53;;;12.97;;
3085;SDS011;52812;48.960;9.108;2023-02-15T09:28:43;30.87;;;14.70;;
3085;SDS011;52812;48.960;9.108;2023-02-15T09:31:19;30.67;;;14.20;;
3085;SDS011;52812;48.960;9.108;2023-02-15T09:33:46;26.77;;;12.93;;
3085;SDS011;52812;48.960;9.108;2023-02-15T09:36:17;32.30;;;15.07;;
3085;SDS011;52812;48.960;9.108;2023-02-15T09:38:55;29.80;;;14.00;;
3085;SDS011;52812;48.960;9.108;2023-02-15T09:41:48;32.97;;;13.90;;
3085;SDS011;52812;48.960;9.108;2023-02-15T09:58:26;29.60;;;13.13;;
3085;SDS011;52812;48.960;9.108;2023-02-15T10:03:49;27.47;;;13.37;;
3085;SDS011;52812;48.960;9.108;2023-02-15T10:11:48;33.43;;;14.37;;
3085;SDS011;52812;48.960;9.108;2023-02-15T10:14:47;27.60;;;13.17;;
3085;SDS011;52812;48.960;9.108;2023-02-15T10:26:17;33.73;;;16.10;;
3085;SDS011;52812;48.960;9.108;2023-02-15T10:31:21;30.50;;;15.43;;
3085;SDS011;52812;48.960;9.108;2023-02-15T10:33:55;25.47;;;12.87;;
3085;SDS011;52812;48.960;9.108;2023-02-15T10:36:56;24.90;;;14.30;;
3085;SDS011;52812;48.960;9.108;2023-02-15T10:42:23;27.40;;;14.27;;
3085;SDS011;52812;48.960;9.108;2023-02-15T10:45:12;31.57;;;15.80;;
3085;SDS011;52812;48.960;9.108;2023-02-15T10:53:34;27.07;;;14.80;;
3085;SDS011;52812;48.960;9.108;2023-02-15T10:56:25;26.23;;;14.30;;
3085;SDS011;52812;48.960;9.108;2023-02-15T10:59:09;26.53;;;14.03;;
3085;SDS011;52812;48.960;9.108;2023-02-15T11:07:02;29.57;;;14.30;;
3085;SDS011;52812;48.960;9.108;2023-02-15T11:09:44;26.13;;;15.20;;
3085;SDS011;52812;48.960;9.108;2023-02-15T11:12:15;27.40;;;15.20;;
3085;SDS011;52812;48.960;9.108;2023-02-15T11:17:39;31.73;;;15.53;;
3085;SDS011;52812;48.960;9.108;2023-02-15T11:22:40;30.27;;;16.53;;
3085;SDS011;52812;48.960;9.108;2023-02-15T11:25:14;28.13;;;15.60;;
3085;SDS011;52812;48.960;9.108;2023-02-15T11:27:50;27.70;;;15.23;;
3085;SDS011;52812;48.960;9.108;2023-02-15T11:30:21;29.40;;;15.73;;
3085;SDS011;52812;48.960;9.108;2023-02-15T11:32:57;32.37;;;16.47;;
3085;SDS011;52812;48.960;9.108;2023-02-15T11:35:31;35.03;;;16.60;;
3085;SDS011;52812;48.960;9.108;2023-02-15T11:38:11;31.60;;;15.97;;
3085;SDS011;52812;48.960;9.108;2023-02-15T11:40:59;30.30;;;15.87;;
3085;SDS011;52812;48.960;9.108;2023-02-15T11:45:58;29.10;;;15.60;;
3085;SDS011;52812;48.960;9.108;2023-02-15T11:48:24;30.93;;;16.70;;
3085;SDS011;52812;48.960;9.108;2023-02-15T11:50:50;26.70;;;15.77;;
3085;SDS011;52812;48.960;9.108;2023-02-15T11:53:19;31.67;;;16.30;;
3085;SDS011;52812;48.960;9.108;2023-02-15T11:55:50;29.93;;;15.87;;
3085;SDS011;52812;48.960;9.108;2023-02-15T11:58:21;28.87;;;15.83;;
3085;SDS011;52812;48.960;9.108;2023-02-15T12:00:49;30.10;;;16.10;;
3085;SDS011;52812;48.960;9.108;2023-02-15T12:03:22;27.70;;;15.87;;
3085;SDS011;52812;48.960;9.108;2023-02-15T12:05:56;30.23;;;15.97;;
3085;SDS011;52812;48.960;9.108;2023-02-15T12:08:26;27.57;;;15.40;;
3085;SDS011;52812;48.960;9.108;2023-02-15T12:11:12;28.90;;;15.43;;
3085;SDS011;52812;48.960;9.108;2023-02-15T12:13:55;33.20;;;16.43;;
3085;SDS011;52812;48.960;9.108;2023-02-15T12:16:22;29.20;;;16.03;;
3085;SDS011;52812;48.960;9.108;2023-02-15T12:18:48;32.07;;;16.90;;
3085;SDS011;52812;48.960;9.108;2023-02-15T12:21:16;31.70;;;17.27;;
3085;SDS011;52812;48.960;9.108;2023-02-15T12:23:52;30.80;;;15.80;;
3085;SDS011;52812;48.960;9.108;2023-02-15T12:26:33;30.10;;;16.93;;
3085;SDS011;52812;48.960;9.108;2023-02-15T12:29:01;30.50;;;16.33;;
3085;SDS011;52812;48.960;9.108;2023-02-15T12:31:45;36.27;;;17.07;;
3085;SDS011;52812;48.960;9.108;2023-02-15T12:36:57;29.00;;;15.80;;
3085;SDS011;52812;48.960;9.108;2023-02-15T12:39:28;36.07;;;18.97;;
3085;SDS011;52812;48.960;9.108;2023-02-15T12:44:40;32.10;;;16.87;;
3085;SDS011;52812;48.960;9.108;2023-02-15T12:47:19;30.20;;;17.20;;
3085;SDS011;52812;48.960;9.108;2023-02-15T12:50:03;32.13;;;17.73;;
3085;SDS011;52812;48.960;9.108;2023-02-15T12:52:33;40.60;;;19.60;;
3085;SDS011;52812;48.960;9.108;2023-02-15T12:55:19;32.43;;;18.03;;
3085;SDS011;52812;48.960;9.108;2023-02-15T12:58:04;33.30;;;17.13;;
3085;SDS011;52812;48.960;9.108;2023-02-15T13:00:39;34.53;;;17.30;;
3085;SDS011;52812;48.960;9.108;2023-02-15T13:03:14;33.77;;;17.10;;
3085;SDS011;52812;48.960;9.108;2023-02-15T13:05:42;38.40;;;19.57;;
3085;SDS011;52812;48.960;9.108;2023-02-15T13:08:12;39.20;;;19.23;;
3085;SDS011;52812;48.960;9.108;2023-02-15T13:10:41;37.43;;;19.40;;
3085;SDS011;52812;48.960;9.108;2023-02-15T13:13:19;38.50;;;20.20;;
3085;SDS011;52812;48.960;9.108;2023-02-15T13:16:07;43.90;;;21.20;;
3085;SDS011;52812;48.960;9.108;2023-02-15T13:18:38;41.30;;;21.03;;
3085;SDS011;52812;48.960;9.108;2023-02-15T13:23:39;37.37;;;18.83;;
3085;SDS011;52812;48.960;9.108;2023-02-15T13:26:11;40.17;;;19.27;;
3085;SDS011;52812;48.960;9.108;2023-02-15T13:28:46;36.93;;;19.57;;
3085;SDS011;52812;48.960;9.108;2023-02-15T13:31:15;37.03;;;19.33;;
3085;SDS011;52812;48.960;9.108;2023-02-15T13:33:49;36.63;;;17.90;;
3085;SDS011;52812;48.960;9.108;2023-02-15T13:39:09;33.73;;;18.40;;
3085;SDS011;52812;48.960;9.108;2023-02-15T13:47:41;34.63;;;18.63;;
3085;SDS011;52812;48.960;9.108;2023-02-15T13:50:25;39.63;;;20.23;;
3085;SDS011;52812;48.960;9.108;2023-02-15T13:56:13;33.37;;;18.17;;
3085;SDS011;52812;48.960;9.108;2023-02-15T13:58:53;31.80;;;18.27;;
3085;SDS011;52812;48.960;9.108;2023-02-15T14:01:36;37.00;;;19.03;;
3085;SDS011;52812;48.960;9.108;2023-02-15T14:04:31;32.17;;;18.40;;
3085;SDS011;52812;48.960;9.108;2023-02-15T14:18:41;34.57;;;17.93;;
3085;SDS011;52812;48.960;9.108;2023-02-15T14:29:44;34.60;;;18.20;;
3085;SDS011;52812;48.960;9.108;2023-02-15T14:32:48;32.43;;;19.17;;
3085;SDS011;52812;48.960;9.108;2023-02-15T14:37:45;30.57;;;17.47;;
3085;SDS011;52812;48.960;9.108;2023-02-15T14:40:34;32.70;;;16.83;;
3085;SDS011;52812;48.960;9.108;2023-02-15T14:43:30;34.63;;;17.90;;
3085;SDS011;52812;48.960;9.108;2023-02-15T14:46:21;28.20;;;16.73;;
3085;SDS011;52812;48.960;9.108;2023-02-15T14:49:23;33.50;;;17.60;;
3085;SDS011;52812;48.960;9.108;2023-02-15T14:52:04;29.73;;;16.53;;
3085;SDS011;52812;48.960;9.108;2023-02-15T14:59:25;31.17;;;16.73;;
3085;SDS011;52812;48.960;9.108;2023-02-15T15:02:10;31.00;;;16.37;;
3085;SDS011;52812;48.960;9.108;2023-02-15T15:04:45;31.67;;;18.33;;
3085;SDS011;52812;48.960;9.108;2023-02-15T15:07:24;30.87;;;17.23;;
3085;SDS011;52812;48.960;9.108;2023-02-15T15:12:41;29.60;;;17.63;;
3085;SDS011;52812;48.960;9.108;2023-02-15T15:15:12;32.07;;;17.90;;
3085;SDS011;52812;48.960;9.108;2023-02-15T15:18:06;34.20;;;18.20;;
3085;SDS011;52812;48.960;9.108;2023-02-15T15:28:06;31.60;;;17.37;;
3085;SDS011;52812;48.960;9.108;2023-02-15T15:33:11;26.90;;;16.23;;
3085;SDS011;52812;48.960;9.108;2023-02-15T15:42:12;29.80;;;16.40;;
3085;SDS011;52812;48.960;9.108;2023-02-15T15:45:02;32.30;;;16.60;;
3085;SDS011;52812;48.960;9.108;2023-02-15T15:50:38;29.80;;;16.13;;
3085;SDS011;52812;48.960;9.108;2023-02-15T15:53:05;30.80;;;16.57;;
3085;SDS011;52812;48.960;9.108;2023-02-15T15:55:40;31.07;;;17.10;;
3085;SDS011;52812;48.960;9.108;2023-02-15T15:58:07;29.57;;;17.17;;
3085;SDS011;52812;48.960;9.108;2023-02-15T16:00:43;31.07;;;16.60;;
3085;SDS011;52812;48.960;9.108;2023-02-15T16:03:51;32.33;;;16.23;;
3085;SDS011;52812;48.960;9.108;2023-02-15T16:06:28;30.77;;;17.50;;
3085;SDS011;52812;48.960;9.108;2023-02-15T16:09:12;29.30;;;16.50;;
3085;SDS011;52812;48.960;9.108;2023-02-15T16:11:38;28.00;;;15.90;;
3085;SDS011;52812;48.960;9.108;2023-02-15T16:14:47;33.37;;;16.90;;
3085;SDS011;52812;48.960;9.108;2023-02-15T16:16:59;34.00;;;17.37;;
3085;SDS011;52812;48.960;9.108;2023-02-15T16:19:28;37.50;;;19.00;;
3085;SDS011;52812;48.960;9.108;2023-02-15T16:21:57;32.33;;;17.43;;
3085;SDS011;52812;48.960;9.108;2023-02-15T16:32:52;41.07;;;20.40;;
3085;SDS011;52812;48.960;9.108;2023-02-15T16:35:19;35.57;;;19.67;;
3085;SDS011;52812;48.960;9.108;2023-02-15T16:37:45;36.90;;;18.87;;
3085;SDS011;52812;48.960;9.108;2023-02-15T16:42:49;38.70;;;19.10;;
3085;SDS011;52812;48.960;9.108;2023-02-15T16:45:31;38.97;;;20.60;;
3085;SDS011;52812;48.960;9.108;2023-02-15T16:47:58;39.10;;;20.10;;
3085;SDS011;52812;48.960;9.108;2023-02-15T16:50:33;37.33;;;19.73;;
3085;SDS011;52812;48.960;9.108;2023-02-15T16:53:01;32.47;;;18.60;;
3085;SDS011;52812;48.960;9.108;2023-02-15T16:55:33;37.10;;;18.60;;
3085;SDS011;52812;48.960;9.108;2023-02-15T16:58:06;35.60;;;18.50;;
3085;SDS011;52812;48.960;9.108;2023-02-15T17:00:36;39.00;;;20.07;;
3085;SDS011;52812;48.960;9.108;2023-02-15T17:03:08;34.90;;;18.70;;
3085;SDS011;52812;48.960;9.108;2023-02-15T17:05:54;37.33;;;18.47;;
3085;SDS011;52812;48.960;9.108;2023-02-15T17:08:35;38.20;;;19.23;;
3085;SDS011;52812;48.960;9.108;2023-02-15T17:13:39;32.33;;;19.00;;
3085;SDS011;52812;48.960;9.108;2023-02-15T17:16:31;39.67;;;22.93;;
3085;SDS011;52812;48.960;9.108;2023-02-15T17:19:02;42.43;;;23.03;;
3085;SDS011;52812;48.960;9.108;2023-02-15T17:21:35;40.30;;;21.90;;
3085;SDS011;52812;48.960;9.108;2023-02-15T17:24:06;40.37;;;22.30;;
3085;SDS011;52812;48.960;9.108;2023-02-15T17:26:39;37.17;;;20.10;;
3085;SDS011;52812;48.960;9.108;2023-02-15T17:29:20;44.20;;;27.50;;
3085;SDS011;52812;48.960;9.108;2023-02-15T17:31:52;44.33;;;22.77;;
3085;SDS011;52812;48.960;9.108;2023-02-15T17:37:13;43.40;;;22.13;;
3085;SDS011;52812;48.960;9.108;2023-02-15T17:39:49;35.07;;;18.77;;
3085;SDS011;52812;48.960;9.108;2023-02-15T17:42:15;37.60;;;19.00;;
3085;SDS011;52812;48.960;9.108;2023-02-15T17:44:40;36.87;;;19.70;;
3085;SDS011;52812;48.960;9.108;2023-02-15T17:47:06;35.97;;;17.70;;
3085;SDS011;52812;48.960;9.108;2023-02-15T17:49:31;40.90;;;19.90;;
3085;SDS011;52812;48.960;9.108;2023-02-15T17:51:59;42.50;;;20.30;;
3085;SDS011;52812;48.960;9.108;2023-02-15T17:54:26;33.80;;;17.53;;
3085;SDS011;52812;48.960;9.108;2023-02-15T17:57:11;32.50;;;17.90;;
3085;SDS011;52812;48.960;9.108;2023-02-15T17:59:38;36.30;;;18.70;;
3085;SDS011;52812;48.960;9.108;2023-02-15T18:02:22;41.23;;;19.97;;
3085;SDS011;52812;48.960;9.108;2023-02-15T18:05:13;39.07;;;18.80;;